createdAt,value
2023-05-10T00:02:17.533Z,51.75
2023-05-10T00:04:46.717Z,51.79
2023-05-10T00:07:14.564Z,51.42
2023-05-10T00:09:42.337Z,51.94
2023-05-10T00:12:10.228Z,51.87
2023-05-10T00:14:38.011Z,52.19
2023-05-10T00:17:05.914Z,52.21
2023-05-10T00:19:33.732Z,52.09
2023-05-10T00:22:02.940Z,52.26
2023-05-10T00:24:30.778Z,51.70
2023-05-10T00:26:58.653Z,51.57
2023-05-10T00:29:26.493Z,52.08
2023-05-10T00:31:54.900Z,52.14
2023-05-10T00:34:22.868Z,52.00
2023-05-10T00:36:50.720Z,51.84
2023-05-10T00:39:20.038Z,52.09
2023-05-10T00:41:48.008Z,52.18
2023-05-10T00:44:17.139Z,51.82
2023-05-10T00:46:46.202Z,52.10
2023-05-10T00:49:15.129Z,52.27
2023-05-10T00:51:43.930Z,51.96
2023-05-10T00:54:13.076Z,51.87
2023-05-10T00:56:42.742Z,51.89
2023-05-10T00:59:11.001Z,52.34
2023-05-10T01:01:39.913Z,52.45
2023-05-10T01:04:07.798Z,52.16
2023-05-10T01:06:35.648Z,52.64
2023-05-10T01:09:03.502Z,52.66
2023-05-10T01:11:31.400Z,52.91
2023-05-10T01:14:01.452Z,52.85
2023-05-10T01:16:31.778Z,52.61
2023-05-10T01:19:00.172Z,52.68
2023-05-10T01:21:34.345Z,52.74
2023-05-10T01:24:44.324Z,53.15
2023-05-10T01:27:32.381Z,53.24
2023-05-10T01:30:50.937Z,53.06
2023-05-10T01:33:25.707Z,52.10
2023-05-10T01:36:01.487Z,52.80
2023-05-10T01:38:39.026Z,53.23
2023-05-10T01:41:15.009Z,52.43
2023-05-10T01:43:54.836Z,53.00
2023-05-10T01:46:29.270Z,52.65
2023-05-10T01:49:01.584Z,52.46
2023-05-10T01:51:38.369Z,52.99
2023-05-10T01:54:08.024Z,52.85
2023-05-10T01:56:39.664Z,52.82
2023-05-10T01:59:11.364Z,52.86
2023-05-10T02:01:40.046Z,52.63
2023-05-10T02:04:11.608Z,53.06
2023-05-10T02:06:41.635Z,52.52
2023-05-10T02:09:11.112Z,52.67
2023-05-10T02:11:40.541Z,52.49
2023-05-10T02:14:11.555Z,53.01
2023-05-10T02:16:41.683Z,52.42
2023-05-10T02:19:12.627Z,53.17
2023-05-10T02:21:42.024Z,52.96
2023-05-10T02:24:12.488Z,52.68
2023-05-10T02:26:40.620Z,52.83
2023-05-10T02:29:09.929Z,53.15
2023-05-10T02:31:39.796Z,53.16
2023-05-10T02:34:10.615Z,52.60
2023-05-10T02:36:43.748Z,52.90
2023-05-10T02:39:13.768Z,53.19
2023-05-10T02:41:43.057Z,52.70
2023-05-10T02:44:11.904Z,53.13
2023-05-10T02:46:40.122Z,53.15
2023-05-10T02:49:08.037Z,52.91
2023-05-10T02:51:39.476Z,53.52
2023-05-10T02:54:17.526Z,53.60
2023-05-10T02:56:51.496Z,53.52
2023-05-10T02:59:19.606Z,52.88
2023-05-10T03:01:47.532Z,53.08
2023-05-10T03:04:15.881Z,53.03
2023-05-10T03:06:43.866Z,53.00
2023-05-10T03:09:16.432Z,53.44
2023-05-10T03:11:57.456Z,53.33
2023-05-10T03:14:36.862Z,53.36
2023-05-10T03:17:10.900Z,53.20
2023-05-10T03:19:45.382Z,52.83
2023-05-10T03:22:17.650Z,53.01
2023-05-10T03:24:48.734Z,53.01
2023-05-10T03:27:18.470Z,52.92
2023-05-10T03:29:47.852Z,52.75
2023-05-10T03:32:16.368Z,53.16
2023-05-10T03:34:44.700Z,52.92
2023-05-10T03:37:12.661Z,53.18
2023-05-10T03:39:40.548Z,52.93
2023-05-10T03:42:13.115Z,52.97
2023-05-10T03:44:41.246Z,52.92
2023-05-10T03:47:10.396Z,53.46
2023-05-10T03:49:38.412Z,53.46
2023-05-10T03:52:06.344Z,53.41
2023-05-10T03:54:34.261Z,53.49
2023-05-10T03:57:02.406Z,52.91
2023-05-10T03:59:32.378Z,52.94
2023-05-10T04:02:00.327Z,53.00
2023-05-10T04:04:28.301Z,53.47
2023-05-10T04:06:56.246Z,53.26
2023-05-10T04:09:24.091Z,53.16
2023-05-10T04:11:52.111Z,53.58
2023-05-10T04:14:19.905Z,53.69
2023-05-10T04:16:49.166Z,53.27
2023-05-10T04:19:17.203Z,53.62
2023-05-10T04:21:45.010Z,53.25
2023-05-10T04:24:13.517Z,53.08
2023-05-10T04:26:41.535Z,53.30
2023-05-10T04:29:09.397Z,53.76
2023-05-10T04:31:37.273Z,53.16
2023-05-10T04:34:06.641Z,53.31
2023-05-10T04:36:36.346Z,53.35
2023-05-10T04:39:04.784Z,53.77
2023-05-10T04:41:32.656Z,53.62
2023-05-10T04:44:00.445Z,53.24
2023-05-10T04:46:28.365Z,53.79
2023-05-10T04:48:56.188Z,53.39
2023-05-10T04:51:25.439Z,53.26
2023-05-10T04:54:05.066Z,53.64
2023-05-10T04:56:34.793Z,53.70
2023-05-10T04:59:02.798Z,53.04
2023-05-10T05:01:30.758Z,53.59
2023-05-10T05:03:58.880Z,53.25
2023-05-10T05:06:28.375Z,53.32
2023-05-10T05:08:56.156Z,53.62
2023-05-10T05:11:24.011Z,53.71
2023-05-10T05:13:51.879Z,53.65
2023-05-10T05:16:19.862Z,53.82
2023-05-10T05:18:47.799Z,53.29
2023-05-10T05:21:17.341Z,53.77
2023-05-10T05:23:47.329Z,53.51
2023-05-10T05:26:15.875Z,53.82
2023-05-10T05:28:44.506Z,53.58
2023-05-10T05:31:13.109Z,53.14
2023-05-10T05:33:41.237Z,53.39
2023-05-10T05:36:09.504Z,53.45
2023-05-10T05:38:37.646Z,53.37
2023-05-10T05:41:07.348Z,53.70
2023-05-10T05:43:38.069Z,53.26
2023-05-10T05:46:07.012Z,53.11
2023-05-10T05:48:34.982Z,53.30
2023-05-10T05:51:03.436Z,52.78
2023-05-10T05:53:32.514Z,53.16
2023-05-10T05:56:00.924Z,53.23
2023-05-10T05:58:30.175Z,53.51
2023-05-10T06:00:58.362Z,53.27
2023-05-10T06:03:26.517Z,53.24
2023-05-10T06:05:54.674Z,53.16
2023-05-10T06:08:22.628Z,53.29
2023-05-10T06:10:50.543Z,53.10
2023-05-10T06:13:18.438Z,52.81
2023-05-10T06:15:47.931Z,53.16
2023-05-10T06:18:15.892Z,53.20
2023-05-10T06:20:44.175Z,52.52
2023-05-10T06:23:12.055Z,53.06
2023-05-10T06:25:40.181Z,52.90
2023-05-10T06:28:08.377Z,52.44
2023-05-10T06:30:38.286Z,52.86
2023-05-10T06:33:07.768Z,53.16
2023-05-10T06:35:35.669Z,52.99
2023-05-10T06:38:03.640Z,52.72
2023-05-10T06:40:31.658Z,52.76
2023-05-10T06:42:59.597Z,52.76
2023-05-10T06:45:27.606Z,53.11
2023-05-10T06:47:55.607Z,52.79
2023-05-10T06:50:24.928Z,52.50
2023-05-10T06:52:53.259Z,52.81
2023-05-10T06:55:21.262Z,52.67
2023-05-10T06:57:51.483Z,52.82
2023-05-10T07:00:21.039Z,52.66
2023-05-10T07:02:49.934Z,52.73
2023-05-10T07:05:18.336Z,53.04
2023-05-10T07:07:47.942Z,52.72
2023-05-10T07:10:15.953Z,53.02
2023-05-10T07:12:44.213Z,53.16
2023-05-10T07:15:12.763Z,53.16
2023-05-10T07:17:43.242Z,53.27
2023-05-10T07:20:13.952Z,53.10
2023-05-10T07:22:41.948Z,53.22
2023-05-10T07:25:11.957Z,52.82
2023-05-10T07:27:39.995Z,52.88
2023-05-10T07:30:09.399Z,52.80
2023-05-10T07:32:37.475Z,53.21
2023-05-10T07:35:06.621Z,52.86
2023-05-10T07:37:34.981Z,53.33
2023-05-10T07:40:03.252Z,53.00
2023-05-10T07:42:32.748Z,52.89
2023-05-10T07:45:00.738Z,52.64
2023-05-10T07:47:28.737Z,52.95
2023-05-10T07:49:56.637Z,53.46
2023-05-10T07:52:24.512Z,53.26
2023-05-10T07:54:52.441Z,52.80
2023-05-10T07:57:20.416Z,52.83
2023-05-10T07:59:49.879Z,53.08
2023-05-10T08:02:17.854Z,53.31
2023-05-10T08:04:45.897Z,52.89
2023-05-10T08:07:13.973Z,53.30
2023-05-10T08:09:41.975Z,53.54
2023-05-10T08:12:10.078Z,53.32
2023-05-10T08:14:38.532Z,53.66
2023-05-10T08:17:07.972Z,53.64
2023-05-10T08:19:36.119Z,53.67
2023-05-10T08:22:04.166Z,53.68
2023-05-10T08:24:32.180Z,53.49
2023-05-10T08:27:00.183Z,53.44
2023-05-10T08:29:30.444Z,53.76
2023-05-10T08:31:58.511Z,53.17
2023-05-10T08:34:27.999Z,53.26
2023-05-10T08:36:56.565Z,53.46
2023-05-10T08:39:30.270Z,53.15
2023-05-10T08:42:04.316Z,53.04
2023-05-10T08:44:34.492Z,53.18
2023-05-10T08:47:21.769Z,53.39
2023-05-10T08:49:52.933Z,52.98
2023-05-10T08:52:21.710Z,53.13
2023-05-10T08:54:49.862Z,52.69
2023-05-10T08:57:18.322Z,52.57
2023-05-10T08:59:46.395Z,52.17
2023-05-10T09:02:18.608Z,52.00
2023-05-10T09:04:46.950Z,52.00
2023-05-10T09:07:16.972Z,51.82
2023-05-10T09:09:45.550Z,51.99
2023-05-10T09:12:16.599Z,51.61
2023-05-10T09:14:46.780Z,51.73
2023-05-10T09:17:15.427Z,51.73
2023-05-10T09:19:43.644Z,51.84
2023-05-10T09:22:12.596Z,51.74
2023-05-10T09:24:46.145Z,51.74
2023-05-10T09:27:14.859Z,51.75
2023-05-10T09:29:45.349Z,51.29
2023-05-10T09:32:14.327Z,51.39
2023-05-10T09:34:43.821Z,51.29
2023-05-10T09:37:12.409Z,51.07
2023-05-10T09:39:42.479Z,51.45
2023-05-10T09:42:14.222Z,51.41
2023-05-10T09:44:44.802Z,51.20
2023-05-10T09:47:13.062Z,51.43
2023-05-10T09:49:41.352Z,50.86
2023-05-10T09:52:10.205Z,50.86
2023-05-10T09:54:39.084Z,50.96
2023-05-10T09:57:33.390Z,50.63
2023-05-10T10:00:05.606Z,50.83
2023-05-10T10:02:41.784Z,50.50
2023-05-10T10:05:10.636Z,50.27
2023-05-10T10:07:38.861Z,50.20
2023-05-10T10:10:12.577Z,50.03
2023-05-10T10:12:43.662Z,49.47
2023-05-10T10:15:13.492Z,49.93
2023-05-10T10:17:45.014Z,49.76
2023-05-10T10:20:13.883Z,49.89
2023-05-10T10:22:42.023Z,49.65
2023-05-10T10:25:10.871Z,49.63
2023-05-10T10:27:50.958Z,49.21
2023-05-10T10:30:28.400Z,49.23
2023-05-10T10:33:27.831Z,49.02
2023-05-10T10:36:00.013Z,49.51
2023-05-10T10:38:28.408Z,49.44
2023-05-10T10:41:05.070Z,49.21
2023-05-10T10:43:34.419Z,49.91
2023-05-10T10:46:15.922Z,49.70
2023-05-10T10:48:49.049Z,49.99
2023-05-10T10:51:16.937Z,50.12
2023-05-10T10:53:45.461Z,49.95
2023-05-10T10:56:16.243Z,49.40
2023-05-10T10:58:52.251Z,48.40
2023-05-10T11:01:21.572Z,49.18
2023-05-10T11:04:21.656Z,48.45
2023-05-10T11:06:49.841Z,48.83
2023-05-10T11:09:18.785Z,49.29
2023-05-10T11:11:57.117Z,48.08
2023-05-10T11:14:27.549Z,49.23
2023-05-10T11:16:55.391Z,48.75
2023-05-10T11:19:23.454Z,48.84
2023-05-10T11:21:53.194Z,48.62
2023-05-10T11:24:23.109Z,48.61
2023-05-10T11:26:53.282Z,48.36
2023-05-10T11:29:21.472Z,48.34
2023-05-10T11:31:51.939Z,48.14
2023-05-10T11:34:31.255Z,48.14
2023-05-10T11:37:37.736Z,48.53
2023-05-10T11:53:45.520Z,48.62
2023-05-10T11:56:14.968Z,48.64
2023-05-10T11:58:43.183Z,48.75
2023-05-10T12:01:13.983Z,48.54
2023-05-10T12:03:42.782Z,48.41
2023-05-10T12:06:10.880Z,48.40
2023-05-10T12:08:46.290Z,48.44
2023-05-10T12:11:17.099Z,48.43
2023-05-10T12:13:47.623Z,48.21
2023-05-10T12:16:16.604Z,48.67
2023-05-10T12:18:47.584Z,48.24
2023-05-10T12:21:16.909Z,48.13
2023-05-10T12:23:47.168Z,47.88
2023-05-10T12:26:16.994Z,47.44
2023-05-10T12:28:45.304Z,47.63
2023-05-10T12:31:13.468Z,47.05
2023-05-10T12:33:43.764Z,47.32
2023-05-10T12:36:13.034Z,47.42
2023-05-10T12:55:58.100Z,48.63
2023-05-10T12:58:35.089Z,48.42
2023-05-10T13:01:05.228Z,48.76
2023-05-10T13:03:33.576Z,49.01
2023-05-10T13:06:02.210Z,49.31
2023-05-10T13:08:34.603Z,48.98
2023-05-10T13:11:05.493Z,49.39
2023-05-10T13:13:35.819Z,49.15
2023-05-10T13:16:04.286Z,49.32
2023-05-10T13:18:32.710Z,49.32
2023-05-10T13:21:00.852Z,49.44
2023-05-10T13:23:29.252Z,49.30
2023-05-10T13:25:57.459Z,49.46
2023-05-10T13:28:27.663Z,49.21
2023-05-10T13:30:56.045Z,49.23
2023-05-10T13:33:24.463Z,49.20
2023-05-10T13:35:55.563Z,49.21
2023-05-10T13:38:24.171Z,49.11
2023-05-10T13:40:53.824Z,49.11
2023-05-10T13:43:22.102Z,49.11
2023-05-10T13:45:51.522Z,49.01
2023-05-10T13:48:19.763Z,49.16
2023-05-10T13:50:48.206Z,49.20
2023-05-10T13:53:16.564Z,48.84
2023-05-10T13:55:44.850Z,48.47
2023-05-10T13:58:13.419Z,48.45
2023-05-10T14:00:41.551Z,48.28
2023-05-10T14:03:12.636Z,47.81
2023-05-10T14:05:40.989Z,48.25
2023-05-10T14:08:10.378Z,48.32
2023-05-10T14:10:40.936Z,48.19
2023-05-10T14:13:21.756Z,48.38
2023-05-10T14:15:49.998Z,48.70
2023-05-10T14:18:19.665Z,48.84
2023-05-10T14:20:48.402Z,48.84
2023-05-10T14:23:41.993Z,48.86
2023-05-10T14:26:18.234Z,49.33
2023-05-10T14:29:49.729Z,48.69
2023-05-10T14:32:45.212Z,49.22
2023-05-10T14:36:34.551Z,48.96
2023-05-10T14:44:01.807Z,49.55
2023-05-10T14:46:37.437Z,49.78
2023-05-10T14:49:11.186Z,49.13
2023-05-10T14:51:58.547Z,49.63
2023-05-10T14:54:42.330Z,49.18
2023-05-10T14:57:40.846Z,49.60
2023-05-10T15:00:32.056Z,49.61
2023-05-10T15:03:37.807Z,49.64
2023-05-10T15:15:00.844Z,49.99
2023-05-10T15:17:35.561Z,49.75
2023-05-10T15:20:16.082Z,50.16
2023-05-10T15:22:52.870Z,49.83
2023-05-10T15:25:21.243Z,49.76
2023-05-10T15:28:32.430Z,49.42
2023-05-10T15:31:25.092Z,50.27
2023-05-10T15:33:59.127Z,49.77
2023-05-10T15:36:26.989Z,50.11
2023-05-10T15:38:55.813Z,49.97
2023-05-10T15:41:23.721Z,49.58
2023-05-10T15:43:51.537Z,49.37
2023-05-10T15:46:19.440Z,49.11
2023-05-10T15:48:47.355Z,49.35
2023-05-10T15:51:16.707Z,48.78
2023-05-10T15:53:53.099Z,48.88
2023-05-10T15:56:28.505Z,48.92
2023-05-10T15:58:56.360Z,49.31
2023-05-10T16:01:24.339Z,49.09
2023-05-10T16:03:52.332Z,49.42
2023-05-10T16:06:21.590Z,48.98
2023-05-10T16:08:56.270Z,48.66
2023-05-10T16:11:24.207Z,48.81
2023-05-10T16:13:52.795Z,48.93
2023-05-10T16:16:20.813Z,48.32
2023-05-10T16:18:48.739Z,48.49
2023-05-10T16:21:16.833Z,48.31
2023-05-10T16:23:46.730Z,48.39
2023-05-10T16:26:14.666Z,48.12
2023-05-10T16:28:42.575Z,47.48
2023-05-10T16:31:10.677Z,47.38
2023-05-10T16:33:38.558Z,47.40
2023-05-10T16:36:06.604Z,47.38
2023-05-10T16:38:34.657Z,47.49
2023-05-10T16:41:04.739Z,46.55
2023-05-10T16:43:33.584Z,46.87
2023-05-10T16:46:01.443Z,46.98
2023-05-10T16:48:29.270Z,47.06
2023-05-10T16:50:57.089Z,46.63
2023-05-10T16:53:25.014Z,46.72
2023-05-10T16:55:52.811Z,45.87
2023-05-10T16:58:22.167Z,46.23
2023-05-10T17:00:50.193Z,46.20
2023-05-10T17:03:18.160Z,45.44
2023-05-10T17:05:46.046Z,45.95
2023-05-10T17:08:13.868Z,45.50
2023-05-10T17:10:41.789Z,45.74
2023-05-10T17:13:10.594Z,45.65
2023-05-10T17:15:40.476Z,45.67
2023-05-10T17:18:10.181Z,45.66
2023-05-10T17:20:39.249Z,45.71
2023-05-10T17:23:07.369Z,45.62
2023-05-10T17:25:36.231Z,45.32
2023-05-10T17:28:04.426Z,45.53
2023-05-10T17:30:32.897Z,45.21
2023-05-10T17:33:02.217Z,45.45
2023-05-10T17:35:31.519Z,45.66
2023-05-10T17:37:59.432Z,45.49
2023-05-10T17:40:27.216Z,45.29
2023-05-10T17:42:55.026Z,45.80
2023-05-10T17:45:22.800Z,45.65
2023-05-10T17:47:50.743Z,45.49
2023-05-10T17:50:19.943Z,45.97
2023-05-10T17:52:47.711Z,45.58
2023-05-10T17:55:15.910Z,45.49
2023-05-10T17:57:44.350Z,45.56
2023-05-10T18:00:13.500Z,45.66
2023-05-10T18:02:42.524Z,46.22
2023-05-10T18:05:11.617Z,46.03
2023-05-10T18:07:40.997Z,45.90
2023-05-10T18:10:09.890Z,45.76
2023-05-10T18:12:37.709Z,45.79
2023-05-10T18:15:06.114Z,45.37
2023-05-10T18:17:34.973Z,45.86
2023-05-10T18:20:03.200Z,46.12
2023-05-10T18:22:31.014Z,45.85
2023-05-10T18:25:00.325Z,45.64
2023-05-10T18:27:28.366Z,45.67
2023-05-10T18:29:56.250Z,45.93
2023-05-10T18:32:24.916Z,45.85
2023-05-10T18:34:54.967Z,45.69
2023-05-10T18:37:23.683Z,45.42
2023-05-10T18:39:51.844Z,45.49
2023-05-10T18:42:21.577Z,45.45
2023-05-10T18:44:49.578Z,45.41
2023-05-10T18:47:17.399Z,45.78
2023-05-10T18:49:46.179Z,45.76
2023-05-10T18:52:16.018Z,45.53
2023-05-10T18:54:43.832Z,46.20
2023-05-10T18:57:12.419Z,46.29
2023-05-10T18:59:41.715Z,46.47
2023-05-10T19:02:09.705Z,46.18
2023-05-10T19:04:37.784Z,45.97
2023-05-10T19:07:05.673Z,45.89
2023-05-10T19:09:33.516Z,45.85
2023-05-10T19:12:01.562Z,46.05
2023-05-10T19:14:29.732Z,45.86
2023-05-10T19:17:01.190Z,46.47
2023-05-10T19:19:30.395Z,46.59
2023-05-10T19:21:59.215Z,46.33
2023-05-10T19:24:27.152Z,46.53
2023-05-10T19:26:56.348Z,46.73
2023-05-10T19:29:24.404Z,47.37
2023-05-10T19:31:52.982Z,47.34
2023-05-10T19:34:22.336Z,47.20
2023-05-10T19:36:50.246Z,47.66
2023-05-10T19:39:18.209Z,47.58
2023-05-10T19:41:46.058Z,47.38
2023-05-10T19:44:13.932Z,47.58
2023-05-10T19:46:41.935Z,47.44
2023-05-10T19:49:09.749Z,47.29
2023-05-10T19:51:39.017Z,47.22
2023-05-10T19:54:07.216Z,47.19
2023-05-10T19:56:35.144Z,47.13
2023-05-10T19:59:04.015Z,46.98
2023-05-10T20:01:32.800Z,47.34
2023-05-10T20:04:00.914Z,47.78
2023-05-10T20:06:28.940Z,47.54
2023-05-10T20:08:58.202Z,48.09
2023-05-10T20:11:26.030Z,48.31
2023-05-10T20:13:54.025Z,47.91
2023-05-10T20:16:22.599Z,48.50
2023-05-10T20:18:53.644Z,48.12
2023-05-10T20:21:23.895Z,48.01
2023-05-10T20:23:51.779Z,48.43
2023-05-10T20:26:21.659Z,48.51
2023-05-10T20:28:49.529Z,48.48
2023-05-10T20:31:17.663Z,48.23
2023-05-10T20:33:45.563Z,48.46
2023-05-10T20:36:13.757Z,48.19
2023-05-10T20:38:41.557Z,48.75
2023-05-10T20:41:09.400Z,48.42
2023-05-10T20:43:38.805Z,48.79
2023-05-10T20:46:07.064Z,48.94
2023-05-10T20:48:35.164Z,49.19
2023-05-10T20:51:03.331Z,49.00
2023-05-10T20:53:31.195Z,49.23
2023-05-10T20:55:58.965Z,49.19
2023-05-10T20:58:27.079Z,48.97
2023-05-10T21:00:56.354Z,49.13
2023-05-10T21:03:24.410Z,49.07
2023-05-10T21:05:52.289Z,48.95
2023-05-10T21:08:20.178Z,49.59
2023-05-10T21:10:48.037Z,49.05
2023-05-10T21:13:16.336Z,49.12
2023-05-10T21:15:44.105Z,49.57
2023-05-10T21:18:13.308Z,49.64
2023-05-10T21:20:41.147Z,49.18
2023-05-10T21:23:08.990Z,49.84
2023-05-10T21:25:37.624Z,49.53
2023-05-10T21:28:05.704Z,49.34
2023-05-10T21:30:33.705Z,49.35
2023-05-10T21:33:02.602Z,49.22
2023-05-10T21:35:31.936Z,49.31
2023-05-10T21:37:59.741Z,49.87
2023-05-10T21:40:27.640Z,49.88
2023-05-10T21:42:55.502Z,50.07
2023-05-10T21:45:23.363Z,49.56
2023-05-10T21:47:51.184Z,49.58
2023-05-10T21:50:19.510Z,49.56
2023-05-10T21:52:48.906Z,49.94
2023-05-10T21:55:16.995Z,49.76
2023-05-10T21:57:45.357Z,50.10
2023-05-10T22:00:16.260Z,49.95
2023-05-10T22:02:44.314Z,49.86
2023-05-10T22:05:12.373Z,49.83
2023-05-10T22:07:40.221Z,50.25
2023-05-10T22:10:10.263Z,49.99
2023-05-10T22:12:38.125Z,50.00
2023-05-10T22:15:10.508Z,50.18
2023-05-10T22:17:39.896Z,50.44
2023-05-10T22:20:09.425Z,50.07
2023-05-10T22:22:37.655Z,50.28
2023-05-10T22:25:07.560Z,49.88
2023-05-10T22:27:37.006Z,50.32
2023-05-10T22:30:05.601Z,50.34
2023-05-10T22:32:34.115Z,50.51
2023-05-10T22:35:02.174Z,50.57
2023-05-10T22:37:30.019Z,50.63
2023-05-10T22:39:57.813Z,50.41
2023-05-10T22:42:25.600Z,50.10
2023-05-10T22:44:54.880Z,50.13
2023-05-10T22:47:22.818Z,50.50
2023-05-10T22:49:50.606Z,50.81
2023-05-10T22:52:18.359Z,50.76
2023-05-10T22:54:46.293Z,50.25
2023-05-10T22:57:14.403Z,50.22
2023-05-10T22:59:42.461Z,50.33
2023-05-10T23:02:14.155Z,50.23
2023-05-10T23:04:42.203Z,50.30
2023-05-10T23:07:10.180Z,50.70
2023-05-10T23:09:38.003Z,50.96
2023-05-10T23:12:05.887Z,50.49
2023-05-10T23:14:33.783Z,50.78
2023-05-10T23:17:01.596Z,50.86
2023-05-10T23:19:30.903Z,50.84
2023-05-10T23:21:59.347Z,50.45
2023-05-10T23:24:27.294Z,50.97
2023-05-10T23:26:55.083Z,50.88
2023-05-10T23:29:23.865Z,50.73
2023-05-10T23:31:51.716Z,50.63
2023-05-10T23:34:19.696Z,50.47
2023-05-10T23:36:48.830Z,51.05
2023-05-10T23:39:16.663Z,50.69
2023-05-10T23:41:44.612Z,50.66
2023-05-10T23:44:12.555Z,51.13
2023-05-10T23:46:40.343Z,51.12
2023-05-10T23:49:08.119Z,50.77
2023-05-10T23:51:36.052Z,50.70
2023-05-10T23:54:05.321Z,50.78
2023-05-10T23:56:33.184Z,50.90
2023-05-10T23:59:01.268Z,51.01
